Terminal Aerodrome Forecast
Issued by NWS

Home | Current Version | Previous Version | Text Only | Print | Product List | Glossary On
Versions: 1 2 3 4 5 6 7 8 9 10 11 12 13 14 15 16 17 18 19 20 21 22 23 24 25 26 27 28 29 30 31 32 33 34 35 36
000
FTUS43 KPAH 220500
TAFOWB
TAF
KOWB 220520Z 2206/2306 22005KT P6SM SCT250
     FM220800 22004KT P6SM SCT250
      TEMPO 2209/2212 5SM BR
     FM221400 23008KT P6SM SCT060
     FM230100 23003KT P6SM BKN050=

USA.gov is the U.S. government's official web portal to all federal, state and local government web resources and services.